Forest fire From: 19-07-2018 17:00 Until: 20-07-2018 16:00 warning for: Forest fire Level: Yellow info button
suomi:
Metsäpalovaroitus on voimassa.

svenska:
Varning för skogsbrand gäller.

english:
A forest fire warning is in force. 

Extreme high temperature From: 19-07-2018 17:00 Until: 23:00 warning for: Extreme high temperature Level: Yellow info button
suomi:
Hellevaroitus: Lähivuorokauden aikana on odotettavissa tukalaa hellettä.

svenska:
Varning för värmebölja: Under det närmaste dygnet är den svåra hettan att vänta.

english:
Heat wave warning: Warm weather is expected during the coming 24 hours. 


Thunder radar more information blitzortung!


Löydät sääaseman tiedot myös:

European Weather Network

Finland Weather Exchange

Weather Underground

AWEKAS



Weather Underground säähistoriasivu

Päivittäin yhteenveto Lokakuu 27, 2017 Yksiköt:  Englantilaiset    Metriset   Molemmat
« Edellinen Päivä
Seuraava Päivä »
Päivittäin Viikoittain Kuukausittain Vuosittain Mukautettu
  Korkea: Matala: Keskiarvo:
Lämpötila: TemperatureC °F -4.9 °F -1.3 °F
Kastepiste: DewpointC °F -5.6 °F -1.8 °F
Kosteus: Humidity % 94 % 96 %
Tuulen nopeus: WindSpeedKMH mph 0.0 mph 2.1 mph
Tuulenpuuska: WindSpeedGustKMH mph - -
Tuuli:- - SSW
Ilmanpaine: PressurehPa in 988.0 in -
Sade: 0.3 in    
Historical Graphs
 
 
Taulukkotiedot Lokakuu 27, 2017
Aika Lämpötila Kastepiste Ilmanpaine Tuuli Tuulen nopeus Tuulenpuuska Kosteus Sademäärä (tunneittain)
TemperatureC °F DewpointC °F PressurehPa in Calm     Humidity % HourlyPrecipMM in
00:00 -2.4 °F -2.9 °F 1008.4 in Calm     97 % 0.0 in
00:15 -2.6 °F -3.1 °F 1008.4 in Calm     96 % 0.0 in
00:30 -2.7 °F -3.2 °F 1008.4 in Calm     96 % 0.0 in
00:45 -2.7 °F -3.3 °F 1008.4 in Calm     96 % 0.0 in
01:00 -2.8 °F -3.4 °F 1008.4 in Calm     96 % 0.0 in
01:15 -3.0 °F -3.5 °F 1008.4 in Calm     96 % 0.0 in
01:30 -3.3 °F -3.9 °F 1008.4 in Calm     96 % 0.0 in
01:45 -3.7 °F -4.4 °F 1008.4 in Calm     95 % 0.0 in
02:00 -4.3 °F -5.0 °F 1008.4 in Calm     95 % 0.0 in
02:15 -4.4 °F -5.1 °F 1008.4 in Calm     95 % 0.0 in
02:30 -4.5 °F -5.2 °F 1008.4 in Calm     95 % 0.0 in
02:45 -4.6 °F -5.1 °F 1008.7 in Calm     96 % 0.0 in
03:00 -4.8 °F -5.5 °F 1008.7 in Calm     95 % 0.0 in
03:15 -4.9 °F -5.6 °F 1008.7 in Calm     95 % 0.0 in
03:30 -4.9 °F -5.6 °F 1008.7 in Calm     95 % 0.0 in
03:45 -4.8 °F -5.3 °F 1008.4 in Calm     96 % 0.0 in
04:00 -4.8 °F -5.3 °F 1008.7 in Calm     96 % 0.0 in
04:15 -4.7 °F -5.2 °F 1008.7 in Calm     96 % 0.0 in
04:30 -4.5 °F -5.0 °F 1008.4 in Calm     96 % 0.0 in
04:45 -4.4 °F -4.9 °F 1008.4 in Calm     96 % 0.0 in
05:00 -4.2 °F -4.8 °F 1008.4 in Calm     96 % 0.0 in
05:15 -4.1 °F -4.7 °F 1008.4 in Calm     96 % 0.0 in
05:30 -3.8 °F -4.3 °F 1008.4 in Calm     96 % 0.0 in
05:45 -3.3 °F -3.7 °F 1008.0 in Calm     97 % 0.0 in
06:00 -2.9 °F -3.4 °F 1008.0 in Calm     97 % 0.0 in
06:15 -3.2 °F -3.9 °F 1007.7 in Calm     95 % 0.0 in
06:30 -3.5 °F -4.2 °F 1007.7 in Calm     95 % 0.0 in
06:45 -3.5 °F -4.2 °F 1007.7 in Calm     95 % 0.0 in
07:00 -3.2 °F -3.9 °F 1007.7 in Calm     95 % 0.0 in
07:15 -3.2 °F -4.0 °F 1007.3 in Calm     94 % 0.0 in
07:30 -3.4 °F -4.3 °F 1007.3 in Calm     94 % 0.0 in
07:45 -3.6 °F -4.4 °F 1007.3 in Calm     94 % 0.0 in
08:00 -3.6 °F -4.3 °F 1007.0 in Calm     95 % 0.0 in
08:15 -3.6 °F -4.3 °F 1007.0 in Calm     95 % 0.0 in
08:30 -3.5 °F -4.2 °F 1007.0 in Calm     95 % 0.0 in
08:45 -3.4 °F -3.9 °F 1007.0 in Calm     96 % 0.0 in
09:00 -3.2 °F -3.8 °F 1006.7 in Calm     96 % 0.0 in
09:15 -3.0 °F -3.5 °F 1006.7 in Calm     96 % 0.0 in
09:30 -2.8 °F -3.4 °F 1006.3 in Calm     96 % 0.0 in
09:45 -2.6 °F -3.2 °F 1006.3 in Calm     96 % 0.0 in
10:00 -2.4 °F -3.0 °F 1005.6 in Calm     96 % 0.0 in
10:15 -2.3 °F -2.9 °F 1005.6 in Calm     96 % 0.0 in
10:30 -2.2 °F -2.8 °F 1005.3 in Calm     96 % 0.0 in
10:45 -2.1 °F -2.6 °F 1005.3 in Calm     96 % 0.0 in
11:00 -1.9 °F -2.5 °F 1005.0 in Calm     96 % 0.0 in
11:15 -1.8 °F -2.3 °F 1004.6 in Calm     96 % 0.0 in
11:30 -1.7 °F -2.2 °F 1004.6 in Calm     96 % 0.0 in
11:45 -1.5 °F -2.1 °F 1004.3 in Calm     96 % 0.0 in
12:00 -1.4 °F -2.0 °F 1003.9 in Calm     96 % 0.0 in
12:15 -1.3 °F -1.9 °F 1003.9 in Calm     96 % 0.0 in
12:30 -1.2 °F -1.7 °F 1003.6 in Calm     96 % 0.0 in
12:45 -1.1 °F -1.6 °F 1002.9 in Calm     96 % 0.0 in
13:00 -0.8 °F -1.2 °F 1002.9 in Calm     97 % 0.0 in
13:15 -0.6 °F -1.0 °F 1002.6 in Calm     97 % 0.0 in
13:30 -0.4 °F -0.9 °F 1002.3 in Calm     97 % 0.0 in
13:45 -0.3 °F -0.7 °F 1002.3 in Calm     97 % 0.0 in
14:00 -0.1 °F -0.5 °F 1001.6 in Calm     97 % 0.0 in
14:15 0.0 °F -0.4 °F 1001.2 in Calm     97 % 0.0 in
14:30 0.2 °F -0.3 °F 1001.2 in SSW 4.8 mph 14.5 mph 97 % 0.0 in
14:45 0.3 °F -0.1 °F 1000.9 in SSW 4.8 mph 17.7 mph 97 % 0.0 in
15:00 0.3 °F -0.1 °F 1000.6 in SSW 4.8 mph 14.5 mph 97 % 0.0 in
15:15 0.4 °F 0.0 °F 999.9 in SSW 6.4 mph 12.9 mph 97 % 0.0 in
15:30 0.5 °F 0.1 °F 999.5 in SSW 4.8 mph 16.1 mph 97 % 0.0 in
15:45 0.6 °F 0.1 °F 999.2 in South 6.4 mph 12.9 mph 97 % 0.0 in
16:00 0.6 °F 0.2 °F 998.9 in SSW 3.2 mph 14.5 mph 97 % 0.0 in
16:15 0.7 °F 0.2 °F 998.9 in SSW 6.4 mph 12.9 mph 97 % 0.0 in
16:30 0.7 °F 0.3 °F 998.5 in SSW 4.8 mph 16.1 mph 97 % 0.0 in
16:45 0.8 °F 0.4 °F 998.2 in SSW 6.4 mph 16.1 mph 97 % 0.0 in
17:00 0.8 °F 0.4 °F 997.9 in SSW 8.0 mph 16.1 mph 97 % 0.0 in
17:15 0.9 °F 0.5 °F 997.5 in SSW 8.0 mph 16.1 mph 97 % 0.0 in
17:30 0.9 °F 0.5 °F 997.2 in SSW 8.0 mph 17.7 mph 97 % 0.0 in
17:45 0.9 °F 0.5 °F 996.8 in SSW 8.0 mph 17.7 mph 97 % 0.0 in
18:00 1.0 °F 0.6 °F 996.5 in SSW 6.4 mph 12.9 mph 97 % 0.0 in
18:15 1.1 °F 0.6 °F 995.8 in SSW 6.4 mph 16.1 mph 97 % 0.0 in
18:30 1.2 °F 0.7 °F 995.5 in SSW 6.4 mph 16.1 mph 97 % 0.0 in
18:45 1.2 °F 0.7 °F 995.1 in South 4.8 mph 20.9 mph 97 % 0.0 in
19:00 1.2 °F 0.9 °F 994.8 in SSW 3.2 mph 11.3 mph 98 % 0.0 in
19:15 1.3 °F 1.0 °F 994.5 in SSW 4.8 mph 12.9 mph 98 % 0.0 in
19:30 1.4 °F 1.1 °F 994.1 in SSW 6.4 mph 14.5 mph 98 % 0.0 in
19:45 1.4 °F 1.2 °F 993.8 in SSW 6.4 mph 14.5 mph 98 % 0.0 in
20:00 1.4 °F 1.2 °F 993.5 in SSW 6.4 mph 14.5 mph 98 % 0.0 in
20:15 1.6 °F 1.3 °F 993.1 in SSW 4.8 mph 14.5 mph 98 % 0.0 in
20:30 1.6 °F 1.3 °F 992.8 in SSW 6.4 mph 17.7 mph 98 % 0.3 in
20:45 1.7 °F 1.4 °F 992.1 in SSW 3.2 mph 9.7 mph 98 % 0.3 in
21:00 1.6 °F 1.3 °F 991.8 in South 3.2 mph 9.7 mph 98 % 0.3 in
21:15 1.6 °F 1.3 °F 991.4 in South 3.2 mph 8.0 mph 98 % 0.3 in
21:30 1.7 °F 1.4 °F 991.1 in South 3.2 mph 11.3 mph 98 % 0.0 in
22:00 1.8 °F 1.6 °F 990.4 in SSW 4.8 mph 12.9 mph 98 % 0.0 in
22:15 1.9 °F 1.7 °F 990.1 in SSW 4.8 mph 11.3 mph 98 % 0.0 in
22:30 2.1 °F 1.8 °F 989.7 in South 4.8 mph 11.3 mph 98 % 0.0 in
22:45 2.1 °F 1.8 °F 989.4 in SSW 4.8 mph 11.3 mph 98 % 0.0 in
23:00 2.1 °F 1.8 °F 988.7 in South 4.8 mph 14.5 mph 98 % 0.0 in
23:15 2.1 °F 1.8 °F 988.7 in SSW 6.4 mph 12.9 mph 98 % 0.0 in
23:30 2.2 °F 1.9 °F 988.0 in SSW 4.8 mph 12.9 mph 98 % 0.0 in
23:45 2.3 °F 2.0 °F 988.0 in SSW 6.4 mph 14.5 mph 98 % 0.0 in
Esan sääasema
Terveisin Weather Underground - 2.75 mb

Alkuperäinen skripti  Jim McMurry - jmcmurry@mwt.net Sovitettu myös templatelle  Wim van der Kuil - Leuven-Template.eu

Laitteet joita käytämme:

Sääasema
Davis VP2

Sääasemaohjelma
Cumulus

Sääaseman tietokone
Asus EeePC

Palveluntarjoaja
Suncomet

Davis VP2

Cumulus

Asus EeePC

Suncomet